createdAt,value
2018-12-19T00:00:00.008Z,85.18
2018-12-19T00:02:31.130Z,85.09
2018-12-19T00:05:03.828Z,85.39
2018-12-19T00:07:36.436Z,85.33
2018-12-19T00:10:07.272Z,85.58
2018-12-19T00:12:37.964Z,85.43
2018-12-19T00:15:08.700Z,85.74
2018-12-19T00:17:39.732Z,86.25
2018-12-19T00:20:10.524Z,85.71
2018-12-19T00:22:41.212Z,86.75
2018-12-19T00:25:11.968Z,85.74
2018-12-19T00:27:44.721Z,85.72
2018-12-19T00:30:17.317Z,85.67
2018-12-19T00:32:49.989Z,85.99
2018-12-19T00:35:22.585Z,86.34
2018-12-19T00:37:53.243Z,85.83
2018-12-19T00:40:23.994Z,86.41
2018-12-19T00:42:54.745Z,86.45
2018-12-19T00:45:25.416Z,86.32
2018-12-19T00:47:56.111Z,86.81
2018-12-19T00:50:26.786Z,86.33
2018-12-19T00:52:57.476Z,86.21
2018-12-19T00:55:28.145Z,86.27
2018-12-19T00:57:58.843Z,86.07
2018-12-19T01:00:29.588Z,85.89
2018-12-19T01:03:00.287Z,86.47
2018-12-19T01:05:30.951Z,86.21
2018-12-19T01:08:01.633Z,85.88
2018-12-19T01:10:32.496Z,85.68
2018-12-19T01:13:03.179Z,85.77
2018-12-19T01:15:33.850Z,86.16
2018-12-19T01:18:04.619Z,85.87
2018-12-19T01:20:35.440Z,86.23
2018-12-19T01:23:06.215Z,86.07
2018-12-19T01:25:36.949Z,86.01
2018-12-19T01:28:07.640Z,86.15
2018-12-19T01:30:38.392Z,86.26
2018-12-19T01:33:09.072Z,85.85
2018-12-19T01:35:39.750Z,86.33
2018-12-19T01:38:11.305Z,86.61
2018-12-19T01:40:41.973Z,86.75
2018-12-19T01:43:12.659Z,86.33
2018-12-19T01:45:43.316Z,86.27
2018-12-19T01:48:14.000Z,86.78
2018-12-19T01:50:44.685Z,86.62
2018-12-19T01:53:15.362Z,86.27
2018-12-19T01:55:46.425Z,86.47
2018-12-19T01:58:17.140Z,86.52
2018-12-19T02:00:47.948Z,86.32
2018-12-19T02:03:18.648Z,86.33
2018-12-19T02:05:50.423Z,86.26
2018-12-19T02:08:21.120Z,86.38
2018-12-19T02:10:51.879Z,85.61
2018-12-19T02:13:22.638Z,85.79
2018-12-19T02:15:53.314Z,86.02
2018-12-19T02:18:24.127Z,85.33
2018-12-19T02:20:54.792Z,85.90
2018-12-19T02:23:25.456Z,86.17
2018-12-19T02:26:02.832Z,85.92
2018-12-19T02:28:33.700Z,85.89
2018-12-19T02:31:05.658Z,85.78
2018-12-19T02:33:37.255Z,85.63
2018-12-19T02:36:07.950Z,86.30
2018-12-19T02:38:38.616Z,86.13
2018-12-19T02:41:10.363Z,85.72
2018-12-19T02:43:41.099Z,85.74
2018-12-19T02:46:11.784Z,85.42
2018-12-19T02:48:42.444Z,85.92
2018-12-19T02:51:13.110Z,86.23
2018-12-19T02:53:43.844Z,85.39
2018-12-19T02:56:15.623Z,85.23
2018-12-19T02:58:46.280Z,85.63
2018-12-19T03:01:16.971Z,85.34
2018-12-19T03:03:47.641Z,86.13
2018-12-19T03:06:18.343Z,85.33
2018-12-19T03:08:49.009Z,85.34
2018-12-19T03:11:19.792Z,85.06
2018-12-19T03:13:53.864Z,85.41
2018-12-19T03:16:24.706Z,85.56
2018-12-19T03:19:01.268Z,85.33
2018-12-19T03:21:32.009Z,85.23
2018-12-19T03:24:02.711Z,85.17
2018-12-19T03:26:33.482Z,84.72
2018-12-19T03:29:04.178Z,84.49
2018-12-19T03:31:34.853Z,84.64
2018-12-19T03:34:06.640Z,85.28
2018-12-19T03:36:37.330Z,85.31
2018-12-19T03:39:08.748Z,85.18
2018-12-19T03:44:17.371Z,84.93
2018-12-19T03:46:48.051Z,84.95
2018-12-19T03:49:19.015Z,85.64
2018-12-19T03:51:49.972Z,85.25
2018-12-19T03:54:20.943Z,85.84
2018-12-19T03:56:52.021Z,85.98
2018-12-19T03:59:22.771Z,85.65
2018-12-19T04:01:53.637Z,85.46
2018-12-19T04:04:24.323Z,85.29
2018-12-19T04:06:55.003Z,85.53
2018-12-19T04:09:25.719Z,85.30
2018-12-19T04:11:56.452Z,85.27
2018-12-19T04:14:27.126Z,85.26
2018-12-19T04:16:57.883Z,84.88
2018-12-19T04:19:28.569Z,84.22
2018-12-19T04:22:01.188Z,84.65
2018-12-19T04:24:31.947Z,84.87
2018-12-19T04:27:02.652Z,84.50
2018-12-19T04:29:33.976Z,84.72
2018-12-19T04:32:04.749Z,84.71
2018-12-19T04:34:35.437Z,84.72
2018-12-19T04:37:06.123Z,84.98
2018-12-19T04:39:36.808Z,85.11
2018-12-19T04:42:07.499Z,84.83
2018-12-19T04:44:38.175Z,85.01
2018-12-19T04:47:08.857Z,85.45
2018-12-19T04:49:39.557Z,85.01
2018-12-19T04:52:10.413Z,85.01
2018-12-19T04:54:41.268Z,85.15
2018-12-19T04:57:11.940Z,85.34
2018-12-19T04:59:42.805Z,85.18
2018-12-19T05:02:13.480Z,84.71
2018-12-19T05:04:44.170Z,85.10
2018-12-19T05:07:14.847Z,84.82
2018-12-19T05:09:45.545Z,84.77
2018-12-19T05:12:16.224Z,84.85
2018-12-19T05:14:55.179Z,84.44
2018-12-19T05:17:25.866Z,84.68
2018-12-19T05:19:56.847Z,84.57
2018-12-19T05:22:27.537Z,84.88
2018-12-19T05:24:58.249Z,85.24
2018-12-19T05:27:28.939Z,85.51
2018-12-19T05:29:59.628Z,85.89
2018-12-19T05:32:30.320Z,85.55
2018-12-19T05:35:01.025Z,85.53
2018-12-19T05:37:31.719Z,85.71
2018-12-19T05:40:02.412Z,85.08
2018-12-19T05:42:33.096Z,85.69
2018-12-19T05:45:04.206Z,85.91
2018-12-19T05:47:35.186Z,86.16
2018-12-19T05:50:07.709Z,86.27
2018-12-19T05:52:38.550Z,86.50
2018-12-19T05:55:10.567Z,86.11
2018-12-19T05:57:41.335Z,86.35
2018-12-19T06:00:12.299Z,86.51
2018-12-19T06:02:43.029Z,86.16
2018-12-19T06:05:13.838Z,86.89
2018-12-19T06:07:44.516Z,86.47
2018-12-19T06:10:15.216Z,86.26
2018-12-19T06:12:45.896Z,85.90
2018-12-19T06:15:16.697Z,85.13
2018-12-19T06:17:47.374Z,85.05
2018-12-19T06:20:18.096Z,85.15
2018-12-19T06:22:48.763Z,85.83
2018-12-19T06:25:19.720Z,84.94
2018-12-19T06:27:50.711Z,84.73
2018-12-19T06:30:21.499Z,84.82
2018-12-19T06:32:52.257Z,85.27
2018-12-19T06:35:22.959Z,85.61
2018-12-19T06:37:53.628Z,85.12
2018-12-19T06:40:24.335Z,85.12
2018-12-19T06:42:55.012Z,85.35
2018-12-19T06:45:25.712Z,85.42
2018-12-19T06:47:56.409Z,85.83
2018-12-19T06:50:27.098Z,84.95
2018-12-19T06:52:57.790Z,84.44
2018-12-19T06:55:28.489Z,84.79
2018-12-19T06:57:59.183Z,84.67
2018-12-19T07:00:29.887Z,84.79
2018-12-19T07:03:00.575Z,84.22
2018-12-19T07:05:31.320Z,84.34
2018-12-19T07:08:02.037Z,84.57
2018-12-19T07:10:38.976Z,84.43
2018-12-19T07:13:05.422Z,85.18
2018-12-19T07:15:36.115Z,85.31
2018-12-19T07:18:06.885Z,84.85
2018-12-19T07:20:37.592Z,85.05
2018-12-19T07:23:08.292Z,85.26
2018-12-19T07:25:39.000Z,85.54
2018-12-19T07:28:10.930Z,85.65
2018-12-19T07:30:41.637Z,86.52
2018-12-19T07:33:12.314Z,86.63
2018-12-19T07:35:42.999Z,85.00
2018-12-19T07:38:13.766Z,84.75
2018-12-19T07:40:45.826Z,85.28
2018-12-19T07:43:16.665Z,85.46
2018-12-19T07:45:47.371Z,85.87
2018-12-19T07:48:18.256Z,85.92
2018-12-19T07:50:48.931Z,85.08
2018-12-19T07:53:19.616Z,85.08
2018-12-19T07:55:50.608Z,85.52
2018-12-19T07:58:21.292Z,85.65
2018-12-19T08:00:51.987Z,87.25
2018-12-19T08:03:22.743Z,87.16
2018-12-19T08:05:53.532Z,86.71
2018-12-19T08:08:24.216Z,86.04
2018-12-19T08:10:54.904Z,86.20
2018-12-19T08:13:25.601Z,85.64
2018-12-19T08:15:56.295Z,85.43
2018-12-19T08:18:27.071Z,84.76
2018-12-19T08:20:58.076Z,84.76
2018-12-19T08:23:28.748Z,84.53
2018-12-19T08:25:59.739Z,84.75
2018-12-19T08:28:30.431Z,84.95
2018-12-19T08:31:01.187Z,85.59
2018-12-19T08:33:31.855Z,85.18
2018-12-19T08:36:02.643Z,84.65
2018-12-19T08:38:33.416Z,84.78
2018-12-19T08:41:05.192Z,85.40
2018-12-19T08:43:36.032Z,85.59
2018-12-19T08:46:06.724Z,85.64
2018-12-19T08:48:37.417Z,86.07
2018-12-19T08:51:08.116Z,85.67
2018-12-19T08:53:38.792Z,85.78
2018-12-19T08:56:09.494Z,85.99
2018-12-19T08:58:40.155Z,86.47
2018-12-19T09:01:11.055Z,86.26
2018-12-19T09:03:41.922Z,86.16
2018-12-19T09:06:12.668Z,86.94
2018-12-19T09:08:43.348Z,86.50
2018-12-19T09:11:14.296Z,86.81
2018-12-19T09:13:44.984Z,86.46
2018-12-19T09:16:15.677Z,86.51
2018-12-19T09:18:46.426Z,86.42
2018-12-19T09:21:17.167Z,86.51
2018-12-19T09:23:47.845Z,86.01
2018-12-19T09:26:18.655Z,86.24
2018-12-19T09:28:49.342Z,86.44
2018-12-19T09:31:20.077Z,86.71
2018-12-19T09:33:50.776Z,86.48
2018-12-19T09:36:21.458Z,85.88
2018-12-19T09:38:52.152Z,86.35
2018-12-19T09:41:23.079Z,86.98
2018-12-19T09:43:53.761Z,86.76
2018-12-19T09:46:24.468Z,87.07
2018-12-19T09:48:55.152Z,87.67
2018-12-19T09:51:25.848Z,87.43
2018-12-19T09:53:56.541Z,87.49
2018-12-19T09:56:27.310Z,87.26
2018-12-19T09:58:57.995Z,87.33
2018-12-19T10:01:28.760Z,88.42
2018-12-19T10:03:59.530Z,88.17
2018-12-19T10:06:30.311Z,87.80
2018-12-19T10:09:00.999Z,88.94
2018-12-19T10:11:31.728Z,89.81
2018-12-19T10:14:02.412Z,90.59
2018-12-19T10:16:33.111Z,89.12
2018-12-19T10:19:03.799Z,88.57
2018-12-19T10:21:34.548Z,88.55
2018-12-19T10:24:05.406Z,88.40
2018-12-19T10:26:36.126Z,91.01
2018-12-19T10:29:06.808Z,90.48
2018-12-19T10:31:37.498Z,90.09
2018-12-19T10:34:08.199Z,90.97
2018-12-19T10:36:38.988Z,90.48
2018-12-19T10:39:16.750Z,89.14
2018-12-19T10:41:47.437Z,89.48
2018-12-19T10:44:18.716Z,89.45
2018-12-19T10:46:49.409Z,89.10
2018-12-19T10:49:20.128Z,89.22
2018-12-19T10:51:50.802Z,90.50
2018-12-19T10:54:21.467Z,89.19
2018-12-19T10:56:52.171Z,88.97
2018-12-19T10:59:22.857Z,89.17
2018-12-19T11:01:53.612Z,89.40
2018-12-19T11:04:24.304Z,89.33
2018-12-19T11:06:54.995Z,89.18
2018-12-19T11:09:25.673Z,89.63
2018-12-19T11:11:56.385Z,89.30
2018-12-19T11:14:27.272Z,89.40
2018-12-19T11:16:58.513Z,89.43
2018-12-19T11:19:29.192Z,89.69
2018-12-19T11:21:59.895Z,89.29
2018-12-19T11:24:30.571Z,89.35
2018-12-19T11:27:01.352Z,88.92
2018-12-19T11:29:32.110Z,89.34
2018-12-19T11:32:02.827Z,88.78
2018-12-19T11:34:33.513Z,89.91
2018-12-19T11:37:04.228Z,89.64
2018-12-19T11:39:34.929Z,90.14
2018-12-19T11:42:05.611Z,90.32
2018-12-19T11:44:36.292Z,90.72
2018-12-19T11:47:07.067Z,91.45
2018-12-19T11:49:37.760Z,92.29
2018-12-19T11:52:08.465Z,92.45
2018-12-19T11:54:39.175Z,92.69
2018-12-19T11:57:11.490Z,92.93
2018-12-19T11:59:42.241Z,93.65
2018-12-19T12:02:12.947Z,93.19
2018-12-19T12:04:43.743Z,93.14
2018-12-19T12:07:16.456Z,93.12
2018-12-19T12:09:47.128Z,92.79
2018-12-19T12:12:17.846Z,92.05
2018-12-19T12:14:48.517Z,92.15
2018-12-19T12:17:19.560Z,92.47
2018-12-19T12:19:50.227Z,93.28
2018-12-19T12:22:20.935Z,91.05
2018-12-19T12:24:51.607Z,91.14
2018-12-19T12:27:22.295Z,91.41
2018-12-19T12:29:52.968Z,91.48
2018-12-19T12:32:23.708Z,91.54
2018-12-19T12:34:54.393Z,91.91
2018-12-19T12:37:25.099Z,92.44
2018-12-19T12:39:55.770Z,93.04
2018-12-19T12:42:27.379Z,93.09
2018-12-19T12:44:58.151Z,92.77
2018-12-19T12:47:28.859Z,92.45
2018-12-19T12:49:59.603Z,91.83
2018-12-19T12:52:30.304Z,91.95
2018-12-19T12:55:00.986Z,91.89
2018-12-19T12:57:31.698Z,92.07
2018-12-19T13:00:02.386Z,92.22
2018-12-19T13:02:33.070Z,92.33
2018-12-19T13:05:03.923Z,92.30
2018-12-19T13:07:35.876Z,91.73
2018-12-19T13:10:08.363Z,91.74
2018-12-19T13:12:39.047Z,91.63
2018-12-19T13:15:10.426Z,92.31
2018-12-19T13:17:41.632Z,92.12
2018-12-19T13:20:12.317Z,91.80
2018-12-19T13:22:43.019Z,91.68
2018-12-19T13:25:13.699Z,91.42
2018-12-19T13:27:44.517Z,91.91
2018-12-19T13:30:15.283Z,92.31
2018-12-19T13:32:46.006Z,92.42
2018-12-19T13:35:16.695Z,93.66
2018-12-19T13:37:47.414Z,94.05
2018-12-19T13:40:18.099Z,94.08
2018-12-19T13:42:48.817Z,94.37
2018-12-19T13:45:19.533Z,94.69
2018-12-19T13:47:50.217Z,95.19
2018-12-19T13:50:20.928Z,93.47
2018-12-19T13:52:51.669Z,93.85
2018-12-19T13:55:22.432Z,93.90
2018-12-19T13:57:53.393Z,93.47
2018-12-19T14:00:24.223Z,93.61
2018-12-19T14:02:55.097Z,93.18
2018-12-19T14:05:26.359Z,93.95
2018-12-19T14:07:59.339Z,94.32
2018-12-19T14:10:30.019Z,94.27
2018-12-19T14:13:00.793Z,93.84
2018-12-19T14:15:31.548Z,93.84
2018-12-19T14:18:02.243Z,94.67
2018-12-19T14:20:32.996Z,95.59
2018-12-19T14:23:03.704Z,96.55
2018-12-19T14:25:34.395Z,96.78
2018-12-19T14:28:05.174Z,96.82
2018-12-19T14:30:35.883Z,96.27
2018-12-19T14:33:06.600Z,96.65
2018-12-19T14:35:37.298Z,95.25
2018-12-19T14:38:09.226Z,93.76
2018-12-19T14:40:39.984Z,93.26
2018-12-19T14:43:10.699Z,93.29
2018-12-19T14:45:41.379Z,93.20
2018-12-19T14:48:12.152Z,93.70
2018-12-19T14:50:42.855Z,93.00
2018-12-19T14:53:13.556Z,93.17
2018-12-19T14:55:44.241Z,92.99
2018-12-19T14:58:14.964Z,92.90
2018-12-19T15:00:45.645Z,92.83
2018-12-19T15:03:16.356Z,92.27
2018-12-19T15:05:47.036Z,92.55
2018-12-19T15:08:17.768Z,92.44
2018-12-19T15:10:48.436Z,92.49
2018-12-19T15:13:19.208Z,92.61
2018-12-19T15:15:55.062Z,92.24
2018-12-19T15:18:26.667Z,91.80
2018-12-19T15:20:57.438Z,91.58
2018-12-19T15:23:28.147Z,92.33
2018-12-19T15:25:58.844Z,92.68
2018-12-19T15:28:29.539Z,92.94
2018-12-19T15:31:00.231Z,93.29
2018-12-19T15:33:30.975Z,93.36
2018-12-19T15:36:02.196Z,93.45
2018-12-19T15:38:32.895Z,93.74
2018-12-19T15:41:03.656Z,94.51
2018-12-19T15:43:34.377Z,93.81
2018-12-19T15:46:05.135Z,92.80
2018-12-19T15:48:35.827Z,91.97
2018-12-19T15:51:06.604Z,91.45
2018-12-19T15:53:37.303Z,91.32
2018-12-19T15:56:09.248Z,91.39
2018-12-19T15:58:39.953Z,91.25
2018-12-19T16:01:10.629Z,91.74
2018-12-19T16:03:41.326Z,92.43
2018-12-19T16:06:12.005Z,92.09
2018-12-19T16:08:42.940Z,92.90
2018-12-19T16:11:13.629Z,93.19
2018-12-19T16:13:45.628Z,91.70
2018-12-19T16:16:16.394Z,91.25
2018-12-19T16:18:47.095Z,90.91
2018-12-19T16:21:17.797Z,91.92
2018-12-19T16:23:48.612Z,91.93
2018-12-19T16:26:19.420Z,92.27
2018-12-19T16:28:50.452Z,90.67
2018-12-19T16:31:21.152Z,91.27
2018-12-19T16:33:51.883Z,91.20
2018-12-19T16:36:22.604Z,91.24
2018-12-19T16:38:53.460Z,91.01
2018-12-19T16:41:24.154Z,91.02
2018-12-19T16:43:55.186Z,90.63
2018-12-19T16:46:25.888Z,90.88
2018-12-19T16:48:56.616Z,91.19
2018-12-19T16:51:27.309Z,91.05
2018-12-19T16:53:58.011Z,90.67
2018-12-19T16:56:28.699Z,90.89
2018-12-19T16:58:59.472Z,91.36
2018-12-19T17:01:30.259Z,91.77
2018-12-19T17:04:01.016Z,92.07
2018-12-19T17:06:31.700Z,92.80
2018-12-19T17:11:41.224Z,93.58
2018-12-19T17:14:11.993Z,93.75
2018-12-19T17:16:42.746Z,93.38
2018-12-19T17:19:13.447Z,93.36
2018-12-19T17:21:44.129Z,93.25
2018-12-19T17:24:14.940Z,93.00
2018-12-19T17:26:45.632Z,92.86
2018-12-19T17:29:16.649Z,93.01
2018-12-19T17:31:47.342Z,92.98
2018-12-19T17:34:18.127Z,92.88
2018-12-19T17:36:48.835Z,92.45
2018-12-19T17:39:19.568Z,92.41
2018-12-19T17:41:50.300Z,92.25
2018-12-19T17:44:21.056Z,91.41
2018-12-19T17:46:51.727Z,91.08
2018-12-19T17:49:22.821Z,91.23
2018-12-19T17:51:53.504Z,92.09
2018-12-19T17:54:24.232Z,91.88
2018-12-19T17:56:54.926Z,91.98
2018-12-19T17:59:25.660Z,92.11
2018-12-19T18:01:56.513Z,91.70
2018-12-19T18:04:27.228Z,92.10
2018-12-19T18:06:57.915Z,91.98
2018-12-19T18:09:28.652Z,92.34
2018-12-19T18:11:59.413Z,92.57
2018-12-19T18:14:30.121Z,92.98
2018-12-19T18:17:00.806Z,93.11
2018-12-19T18:19:31.508Z,93.45
2018-12-19T18:22:03.140Z,91.61
2018-12-19T18:24:33.997Z,91.81
2018-12-19T18:27:04.846Z,91.94
2018-12-19T18:29:35.584Z,91.72
2018-12-19T18:32:06.321Z,91.98
2018-12-19T18:34:37.035Z,91.76
2018-12-19T18:37:07.895Z,91.22
2018-12-19T18:39:38.775Z,91.13
2018-12-19T18:42:10.616Z,91.04
2018-12-19T18:44:41.355Z,91.10
2018-12-19T18:47:12.280Z,90.81
2018-12-19T18:49:43.176Z,90.72
2018-12-19T18:52:13.917Z,91.05
2018-12-19T18:54:44.736Z,91.65
2018-12-19T18:57:15.531Z,91.69
2018-12-19T18:59:46.346Z,90.95
2018-12-19T19:02:17.253Z,91.11
2018-12-19T19:04:48.044Z,91.17
2018-12-19T19:07:18.933Z,91.23
2018-12-19T19:09:49.740Z,91.14
2018-12-19T19:12:20.581Z,91.87
2018-12-19T19:14:51.379Z,92.25
2018-12-19T19:17:22.087Z,92.87
2018-12-19T19:19:52.996Z,92.97
2018-12-19T19:22:23.830Z,92.55
2018-12-19T19:24:54.707Z,92.89
2018-12-19T19:27:25.520Z,93.16
2018-12-19T19:29:56.336Z,93.82
2018-12-19T19:32:27.163Z,93.72
2018-12-19T19:34:57.983Z,93.96
2018-12-19T19:37:28.918Z,94.33
2018-12-19T19:39:59.773Z,94.05
2018-12-19T19:42:30.592Z,94.42
2018-12-19T19:45:01.442Z,94.97
2018-12-19T19:47:32.254Z,94.30
2018-12-19T19:50:03.184Z,94.03
2018-12-19T19:52:34.085Z,94.08
2018-12-19T19:55:05.124Z,93.31
2018-12-19T19:57:35.980Z,93.46
2018-12-19T20:00:09.775Z,93.70
2018-12-19T20:02:40.466Z,94.25
2018-12-19T20:05:11.203Z,94.12
2018-12-19T20:07:42.140Z,94.79
2018-12-19T20:10:13.092Z,94.31
2018-12-19T20:12:43.842Z,94.24
2018-12-19T20:15:14.554Z,94.83
2018-12-19T20:17:45.320Z,94.99
2018-12-19T20:20:16.636Z,95.13
2018-12-19T20:22:47.443Z,95.49
2018-12-19T20:25:18.271Z,95.27
2018-12-19T20:27:49.092Z,94.90
2018-12-19T20:30:20.936Z,94.71
2018-12-19T20:32:51.629Z,95.27
2018-12-19T20:35:22.464Z,94.67
2018-12-19T20:37:53.376Z,94.82
2018-12-19T20:40:24.279Z,94.21
2018-12-19T20:42:55.129Z,94.33
2018-12-19T20:45:25.907Z,94.60
2018-12-19T20:47:56.589Z,94.45
2018-12-19T20:50:27.310Z,94.57
2018-12-19T20:52:58.065Z,94.79
2018-12-19T20:55:28.847Z,95.15
2018-12-19T20:57:59.632Z,94.97
2018-12-19T21:00:30.527Z,95.68
2018-12-19T21:03:01.280Z,95.41
2018-12-19T21:05:32.020Z,96.12
2018-12-19T21:08:02.828Z,95.67
2018-12-19T21:10:33.630Z,95.94
2018-12-19T21:13:04.317Z,96.03
2018-12-19T21:15:35.112Z,96.09
2018-12-19T21:18:11.046Z,96.13
2018-12-19T21:20:41.797Z,96.55
2018-12-19T21:23:12.496Z,96.35
2018-12-19T21:25:43.184Z,96.71
2018-12-19T21:28:14.903Z,96.57
2018-12-19T21:30:45.683Z,96.17
2018-12-19T21:33:16.398Z,95.89
2018-12-19T21:35:47.084Z,95.96
2018-12-19T21:38:17.804Z,96.11
2018-12-19T21:40:48.586Z,97.23
2018-12-19T21:43:19.263Z,97.28
2018-12-19T21:45:51.872Z,97.26
2018-12-19T21:48:22.695Z,96.77
2018-12-19T21:50:53.453Z,100.00
2018-12-19T21:53:24.184Z,96.31
2018-12-19T21:55:54.995Z,95.32
2018-12-19T21:58:25.727Z,95.17
2018-12-19T22:00:56.469Z,94.93
2018-12-19T22:03:27.152Z,95.52
2018-12-19T22:05:58.928Z,96.28
2018-12-19T22:08:30.723Z,96.56
2018-12-19T22:11:01.506Z,96.67
2018-12-19T22:13:32.458Z,96.62
2018-12-19T22:16:03.251Z,96.38
2018-12-19T22:18:39.442Z,96.66
2018-12-19T22:21:10.693Z,96.31
2018-12-19T22:23:41.404Z,96.89
2018-12-19T22:26:12.188Z,97.10
2018-12-19T22:28:42.949Z,97.15
2018-12-19T22:31:13.690Z,97.63
2018-12-19T22:33:44.408Z,97.19
2018-12-19T22:36:15.202Z,96.91
2018-12-19T22:38:45.912Z,97.24
2018-12-19T22:41:16.635Z,96.82
2018-12-19T22:43:47.407Z,96.86
2018-12-19T22:46:18.261Z,96.52
2018-12-19T22:48:49.022Z,96.34
2018-12-19T22:51:19.857Z,96.52
2018-12-19T22:53:50.543Z,95.80
2018-12-19T22:56:21.508Z,96.06
2018-12-19T22:58:52.238Z,95.48
2018-12-19T23:01:28.567Z,95.78
2018-12-19T23:04:04.472Z,95.54
2018-12-19T23:06:36.355Z,95.67
2018-12-19T23:09:08.094Z,95.19
2018-12-19T23:11:38.893Z,95.37
2018-12-19T23:14:15.349Z,95.03
2018-12-19T23:16:48.733Z,95.02
2018-12-19T23:19:24.831Z,95.04
2018-12-19T23:22:01.032Z,94.84
2018-12-19T23:24:37.276Z,93.74
2018-12-19T23:27:10.772Z,94.44
2018-12-19T23:29:43.434Z,94.44
2018-12-19T23:34:57.976Z,94.52
2018-12-19T23:37:28.812Z,94.80
2018-12-19T23:39:59.495Z,94.59
2018-12-19T23:42:30.186Z,94.56
2018-12-19T23:45:00.879Z,94.61
2018-12-19T23:47:31.725Z,95.33
2018-12-19T23:50:02.486Z,95.15
2018-12-19T23:52:33.192Z,95.62
2018-12-19T23:55:04.199Z,95.12
2018-12-19T23:57:34.948Z,94.92
